Flight Track Log - Related Links

Times and Time Zones

All times are in EDT time to prevent confusion due to time zone crossing. See the JBU231 flight status page for this flight to view local times or setup timezone preferences in your user account.

Time Position Orientation Groundspeed Altitude Reporting Facility
EDT Latitude Longitude Course Direction KTS MPH feet Rate Location/Type
Sun 01:51:07 PM 40.7731 -111.9736 174° South 173 199 4,900  Level Salt Center
Sun 01:51:53 PM 40.7450 -111.9697 174° South 171 197 6,000 1,556 Climbing Salt Center
Sun 01:52:55 PM 40.6778 -111.9669 178° South 243 280 7,700 2,323 Climbing Salt Center
Sun 01:53:57 PM 40.5847 -111.9608 177° South 281 323 10,800 2,371 Climbing Salt Center
Sun 01:54:59 PM 40.4892 -111.9547 177° South 349 402 12,600 2,081 Climbing Salt Center
Sun 01:56:01 PM 40.3867 -111.9478 177° South 368 423 15,100 2,323 Climbing Salt Center
Sun 01:57:03 PM 40.2792 -111.9417 178° South 387 445 17,400 2,419 Climbing Salt Center
Sun 01:58:05 PM 40.1719 -111.9558 186° South 383 441 20,100 2,177 Climbing Salt Center
Sun 01:59:07 PM 40.0439 -111.9742 186° South 390 449 21,900 1,200 Climbing Salt Center
Sun 02:00:10 PM 39.9231 -111.9919 186° South 439 505 22,600 960 Climbing Salt Center
Sun 02:01:12 PM 39.7964 -112.0111 187° South 457 526 23,900 1,306 Climbing Salt Center
Sun 02:02:14 PM 39.6658 -112.0297 186° South 469 540 25,300 1,306 Climbing Salt Center
Sun 02:03:16 PM 39.5322 -112.0492 186° South 481 554 26,600 1,306 Climbing Salt Center
Sun 02:04:18 PM 39.3964 -112.0678 186° South 489 563 28,000 1,258 Climbing Salt Center
Sun 02:05:20 PM 39.2289 -112.0936 187° South 495 570 29,200 1,258 Climbing Salt Center
Sun 02:06:22 PM 39.0947 -112.1414 195° South 499 574 30,600 1,548 Climbing Salt Center
Sun 02:07:24 PM 38.9769 -112.2211 208° Southwest 480 552 32,400 1,306 Climbing Salt Center
Sun 02:08:26 PM 38.8608 -112.3039 209° Southwest 478 550 33,300 919 Climbing Salt Center
Sun 02:09:28 PM 38.7450 -112.3886 210° Southwest 479 551 34,300 871 Climbing Salt Center
Sun 02:10:30 PM 38.6278 -112.4731 209° Southwest 482 555 35,100 823 Climbing Salt Center
Sun 02:11:32 PM 38.4858 -112.5758 210° Southwest 488 562 36,000 435 Climbing Salt Center
Sun 02:12:34 PM 38.3678 -112.6603 209° Southwest 488 562 36,000  Level Salt Center
Sun 02:13:36 PM 38.2494 -112.7439 209° Southwest 487 560 36,000  Level Salt Center
Sun 02:14:38 PM 38.1314 -112.8269 209° Southwest 487 560 36,000  Level Salt Center
Sun 02:15:40 PM 38.0156 -112.9086 209° Southwest 481 554 36,000  Level Salt Center
Sun 02:16:42 PM 37.9003 -112.9903 209° Southwest 479 551 36,000  Level Salt Center
Sun 02:17:44 PM 37.7650 -113.0906 210° Southwest 478 550 36,000  Level Salt Center
Sun 02:18:47 PM 37.6653 -113.1944 220° Southwest 472 543 36,000  Level Salt Center
Sun 02:19:25 PM 37.6058 -113.2572 220° Southwest 470 541 36,000  Level Los Center
Sun 02:20:27 PM 37.5019 -113.3600 218° Southwest 478 550 36,000 48 Level Los Center
Sun 02:21:29 PM 37.3797 -113.4844 219° Southwest 475 547 36,100  Climbing Los Center
Sun 02:22:31 PM 37.2792 -113.5867 219° Southwest 468 539 36,000 -48 Descending Los Center
Sun 02:23:33 PM 37.1783 -113.6886 219° Southwest 468 539 36,000  Level Los Center
Sun 02:24:36 PM 37.0778 -113.7903 219° Southwest 466 536 36,000  Level Los Center
Sun 02:25:38 PM 36.9739 -113.8953 219° Southwest 471 542 36,000 48 Level Los Center
Sun 02:26:40 PM 36.8700 -113.9983 218° Southwest 476 548 36,100 48 Climbing Los Center
Sun 02:27:42 PM 36.7497 -114.1200 219° Southwest 474 545 36,100 -48 Level Los Center
Sun 02:28:44 PM 36.6467 -114.2233 219° Southwest 477 549 36,000 -48 Descending Los Center
Sun 02:29:46 PM 36.5400 -114.3289 218° Southwest 474 545 36,000  Level Los Center
Sun 02:30:48 PM 36.4361 -114.4308 218° Southwest 475 547 36,000  Level Los Center
Sun 02:31:50 PM 36.3336 -114.5314 218° Southwest 471 542 36,000  Level Los Center
Sun 02:32:52 PM 36.2311 -114.6333 219° Southwest 470 541 36,000  Level Los Center
Sun 02:33:54 PM 36.1275 -114.7339 218° Southwest 471 542 36,000  Level Los Center
Sun 02:34:56 PM 36.0042 -114.8556 219° Southwest 470 541 36,000  Level Los Center
Sun 02:35:59 PM 35.9125 -114.9725 226° Southwest 472 543 36,000  Level Los Center
Sun 02:37:01 PM 35.8267 -115.0933 229° Southwest 468 539 36,000  Level Los Center
Sun 02:38:03 PM 35.7389 -115.2128 228° Southwest 468 539 36,000  Level Los Center
Sun 02:39:05 PM 35.6517 -115.3322 228° Southwest 467 537 36,000  Level Los Center
Sun 02:40:07 PM 35.5628 -115.4508 227° Southwest 468 539 36,000 -242 Level Los Center
Sun 02:41:09 PM 35.4742 -115.5700 228° Southwest 470 541 35,500 -1,500 Descending Los Center
Sun 02:42:11 PM 35.3822 -115.6917 227° Southwest 463 533 32,900 -2,565 Descending Los Center
Sun 02:43:13 PM 35.2961 -115.8053 227° Southwest 458 527 30,200 -1,403 Descending Los Center
Sun 02:44:15 PM 35.1917 -115.9447 228° Southwest 464 534 30,000 -97 Descending Los Center
Sun 02:45:17 PM 35.1025 -116.0633 227° Southwest 472 543 30,000  Level Los Center
Sun 02:46:20 PM 35.0136 -116.1794 227° Southwest 469 540 30,000  Level Los Center
Sun 02:47:22 PM 34.9253 -116.2969 228° Southwest 469 540 30,000 -48 Level Los Center
Sun 02:48:24 PM 34.8347 -116.4128 226° Southwest 470 541 29,900 -1,065 Descending Los Center
Sun 02:49:26 PM 34.7458 -116.5275 227° Southwest 468 539 27,800 -2,177 Descending Los Center
Sun 02:50:28 PM 34.6581 -116.6322 224° Southwest 446 513 25,400 -2,952 Descending Los Center
Sun 02:51:30 PM 34.5556 -116.7583 225° Southwest 438 504 21,700 -3,000 Descending Los Center
Sun 02:52:32 PM 34.4706 -116.8614 225° Southwest 431 496 19,200 -2,419 Descending Los Center
Sun 02:53:34 PM 34.3892 -116.9603 225° Southwest 416 479 16,700 -2,371 Descending Los Center
Sun 02:54:36 PM 34.3114 -117.0547 225° Southwest 399 459 14,300 -1,742 Descending Los Center
Sun 02:55:38 PM 34.2222 -117.1228 212° Southwest 390 449 13,100 -629 Descending Los Center
Sun 02:56:40 PM 34.1183 -117.1583 196° South 375 432 13,000 -130 Descending Los Center
Sun 02:57:10 PM 34.0667 -117.1833 202° Southwest 373 429 12,900 -1,267 Descending Southern TRACON
Sun 02:58:10 PM 33.9667 -117.2167 195° South 368 423 11,100 -1,350 Descending Southern TRACON
Sun 02:59:10 PM 33.8833 -117.2667 206° Southwest 332 382 10,200 -1,050 Descending Southern TRACON
Sun 03:00:10 PM 33.8500 -117.3667 248° West 292 336 9,000 -1,091 Descending Southern TRACON
Sun 03:00:49 PM 33.8408 -117.4050 254° West 290 334 8,400 -594 Descending Los Center
Sun 03:01:51 PM 33.8108 -117.4936 248° West 287 330 8,000 -242 Descending Los Center
Sun 03:02:53 PM 33.7778 -117.5972 249° West 280 322 7,900 -532 Descending Los Center
Sun 03:03:55 PM 33.7550 -117.6694 249° West 246 283 6,900 -1,161 Descending Los Center
Sun 03:04:57 PM 33.7328 -117.7422 250° West 235 270 5,500 -1,328 Descending Los Center
Sun 03:06:06 PM 33.7000 -117.8333 247° West 229 264 4,000 -738 Descending Southern TRACON
Sun 03:07:07 PM 33.6833 -117.9000 253° West 226 260 3,900 -545 Descending Southern TRACON
Sun 03:08:07 PM 33.7000 -117.9667 287° West 214 246 2,900 -1,150 Descending Southern TRACON
Sun 03:09:07 PM 33.7167 -118.0333 287° West 221 254 1,600 -762 Descending Southern TRACON
Sun 03:10:13 PM 33.7667 -118.0833 320° Northwest 178 205 1,300 -496 Descending Southern TRACON
Sun 03:11:08 PM 33.7833 -118.1167 301° West 142 163 600 -504 Descending Southern TRACON
Sun 03:12:12 PM 33.8167 -118.1489 321° Northwest 151 174 300 -281 Descending Los Center

Login

Don't have an account? Register now (free) for customized features, flight alerts, and more!